sensor_id;sensor_type;location;lat;lon;timestamp;P1;durP1;ratioP1;P2;durP2;ratioP2
65799;SDS011;52544;48.116;11.660;2023-06-14T00:00:12;6.22;;;3.55;;
65799;SDS011;52544;48.116;11.660;2023-06-14T00:02:39;5.07;;;3.80;;
65799;SDS011;52544;48.116;11.660;2023-06-14T00:05:05;5.22;;;3.65;;
65799;SDS011;52544;48.116;11.660;2023-06-14T00:07:38;7.47;;;3.67;;
65799;SDS011;52544;48.116;11.660;2023-06-14T00:10:08;5.93;;;3.50;;
65799;SDS011;52544;48.116;11.660;2023-06-14T00:12:34;5.53;;;3.60;;
65799;SDS011;52544;48.116;11.660;2023-06-14T00:15:00;6.82;;;4.00;;
65799;SDS011;52544;48.116;11.660;2023-06-14T00:17:28;5.85;;;3.80;;
65799;SDS011;52544;48.116;11.660;2023-06-14T00:19:57;6.53;;;3.95;;
65799;SDS011;52544;48.116;11.660;2023-06-14T00:22:24;7.57;;;4.13;;
65799;SDS011;52544;48.116;11.660;2023-06-14T00:24:50;4.68;;;3.38;;
65799;SDS011;52544;48.116;11.660;2023-06-14T00:27:16;7.05;;;3.65;;
65799;SDS011;52544;48.116;11.660;2023-06-14T00:29:41;6.13;;;3.88;;
65799;SDS011;52544;48.116;11.660;2023-06-14T00:32:07;7.32;;;4.10;;
65799;SDS011;52544;48.116;11.660;2023-06-14T00:34:32;6.47;;;4.10;;
65799;SDS011;52544;48.116;11.660;2023-06-14T00:36:58;9.70;;;3.95;;
65799;SDS011;52544;48.116;11.660;2023-06-14T00:39:24;5.35;;;3.80;;
65799;SDS011;52544;48.116;11.660;2023-06-14T00:41:49;8.27;;;4.00;;
65799;SDS011;52544;48.116;11.660;2023-06-14T00:44:15;6.75;;;4.00;;
65799;SDS011;52544;48.116;11.660;2023-06-14T00:46:41;6.45;;;3.75;;
65799;SDS011;52544;48.116;11.660;2023-06-14T00:49:08;7.32;;;3.58;;
65799;SDS011;52544;48.116;11.660;2023-06-14T00:51:33;6.35;;;4.00;;
65799;SDS011;52544;48.116;11.660;2023-06-14T00:53:59;7.65;;;3.80;;
65799;SDS011;52544;48.116;11.660;2023-06-14T00:56:25;6.45;;;3.83;;
65799;SDS011;52544;48.116;11.660;2023-06-14T00:58:52;6.05;;;3.83;;
65799;SDS011;52544;48.116;11.660;2023-06-14T01:01:18;6.25;;;3.85;;
65799;SDS011;52544;48.116;11.660;2023-06-14T01:03:43;6.57;;;4.30;;
65799;SDS011;52544;48.116;11.660;2023-06-14T01:08:56;7.80;;;4.22;;
65799;SDS011;52544;48.116;11.660;2023-06-14T01:11:31;9.70;;;4.35;;
65799;SDS011;52544;48.116;11.660;2023-06-14T01:14:03;7.13;;;4.25;;
65799;SDS011;52544;48.116;11.660;2023-06-14T01:16:29;10.27;;;4.63;;
65799;SDS011;52544;48.116;11.660;2023-06-14T01:18:56;9.27;;;4.10;;
65799;SDS011;52544;48.116;11.660;2023-06-14T01:21:23;9.93;;;4.35;;
65799;SDS011;52544;48.116;11.660;2023-06-14T01:23:50;6.70;;;4.05;;
65799;SDS011;52544;48.116;11.660;2023-06-14T01:26:21;7.07;;;4.32;;
65799;SDS011;52544;48.116;11.660;2023-06-14T01:28:48;7.57;;;4.40;;
65799;SDS011;52544;48.116;11.660;2023-06-14T01:31:17;5.65;;;3.95;;
65799;SDS011;52544;48.116;11.660;2023-06-14T01:33:46;6.85;;;3.90;;
65799;SDS011;52544;48.116;11.660;2023-06-14T01:36:14;8.80;;;4.20;;
65799;SDS011;52544;48.116;11.660;2023-06-14T01:38:41;7.28;;;4.55;;
65799;SDS011;52544;48.116;11.660;2023-06-14T01:41:08;7.70;;;4.38;;
65799;SDS011;52544;48.116;11.660;2023-06-14T01:43:34;7.00;;;3.97;;
65799;SDS011;52544;48.116;11.660;2023-06-14T01:46:01;8.27;;;4.63;;
65799;SDS011;52544;48.116;11.660;2023-06-14T01:48:28;7.43;;;4.40;;
65799;SDS011;52544;48.116;11.660;2023-06-14T01:50:53;7.25;;;4.20;;
65799;SDS011;52544;48.116;11.660;2023-06-14T01:53:19;6.22;;;3.80;;
65799;SDS011;52544;48.116;11.660;2023-06-14T01:55:44;10.52;;;4.55;;
65799;SDS011;52544;48.116;11.660;2023-06-14T01:58:13;6.93;;;4.15;;
65799;SDS011;52544;48.116;11.660;2023-06-14T02:00:41;8.43;;;4.43;;
65799;SDS011;52544;48.116;11.660;2023-06-14T02:03:08;10.23;;;4.97;;
65799;SDS011;52544;48.116;11.660;2023-06-14T02:05:34;6.72;;;4.50;;
65799;SDS011;52544;48.116;11.660;2023-06-14T02:07:59;8.38;;;4.18;;
65799;SDS011;52544;48.116;11.660;2023-06-14T02:10:25;9.48;;;4.45;;
65799;SDS011;52544;48.116;11.660;2023-06-14T02:12:51;7.50;;;4.30;;
65799;SDS011;52544;48.116;11.660;2023-06-14T02:15:16;5.63;;;3.90;;
65799;SDS011;52544;48.116;11.660;2023-06-14T02:17:46;6.15;;;4.15;;
65799;SDS011;52544;48.116;11.660;2023-06-14T02:20:14;6.40;;;4.00;;
65799;SDS011;52544;48.116;11.660;2023-06-14T02:22:40;10.15;;;4.50;;
65799;SDS011;52544;48.116;11.660;2023-06-14T02:25:05;8.63;;;4.47;;
65799;SDS011;52544;48.116;11.660;2023-06-14T02:27:32;7.70;;;4.38;;
65799;SDS011;52544;48.116;11.660;2023-06-14T02:29:58;7.32;;;4.32;;
65799;SDS011;52544;48.116;11.660;2023-06-14T02:32:24;8.52;;;4.55;;
65799;SDS011;52544;48.116;11.660;2023-06-14T02:34:49;6.38;;;4.22;;
65799;SDS011;52544;48.116;11.660;2023-06-14T02:37:15;6.25;;;4.28;;
65799;SDS011;52544;48.116;11.660;2023-06-14T02:39:41;7.55;;;3.85;;
65799;SDS011;52544;48.116;11.660;2023-06-14T02:42:06;6.20;;;4.18;;
65799;SDS011;52544;48.116;11.660;2023-06-14T02:44:32;7.38;;;4.43;;
65799;SDS011;52544;48.116;11.660;2023-06-14T02:46:57;8.15;;;4.60;;
65799;SDS011;52544;48.116;11.660;2023-06-14T02:49:23;9.55;;;4.78;;
65799;SDS011;52544;48.116;11.660;2023-06-14T02:51:49;6.95;;;4.30;;
65799;SDS011;52544;48.116;11.660;2023-06-14T02:54:15;12.43;;;4.75;;
65799;SDS011;52544;48.116;11.660;2023-06-14T02:56:40;8.60;;;4.78;;
65799;SDS011;52544;48.116;11.660;2023-06-14T02:59:06;6.15;;;4.03;;
65799;SDS011;52544;48.116;11.660;2023-06-14T03:01:32;7.03;;;4.65;;
65799;SDS011;52544;48.116;11.660;2023-06-14T03:04:05;7.03;;;4.32;;
65799;SDS011;52544;48.116;11.660;2023-06-14T03:06:32;6.40;;;4.10;;
65799;SDS011;52544;48.116;11.660;2023-06-14T03:08:58;7.75;;;4.95;;
65799;SDS011;52544;48.116;11.660;2023-06-14T03:11:26;10.25;;;4.38;;
65799;SDS011;52544;48.116;11.660;2023-06-14T03:13:55;8.27;;;4.85;;
65799;SDS011;52544;48.116;11.660;2023-06-14T03:16:21;7.13;;;4.22;;
65799;SDS011;52544;48.116;11.660;2023-06-14T03:18:50;7.18;;;4.38;;
65799;SDS011;52544;48.116;11.660;2023-06-14T03:21:17;7.03;;;4.32;;
65799;SDS011;52544;48.116;11.660;2023-06-14T03:23:43;6.93;;;4.25;;
65799;SDS011;52544;48.116;11.660;2023-06-14T03:26:09;6.47;;;4.60;;
65799;SDS011;52544;48.116;11.660;2023-06-14T03:28:38;9.52;;;4.65;;
65799;SDS011;52544;48.116;11.660;2023-06-14T03:31:03;6.85;;;4.47;;
65799;SDS011;52544;48.116;11.660;2023-06-14T03:33:29;7.38;;;4.38;;
65799;SDS011;52544;48.116;11.660;2023-06-14T03:35:54;8.32;;;4.38;;
65799;SDS011;52544;48.116;11.660;2023-06-14T03:38:21;8.38;;;4.68;;
65799;SDS011;52544;48.116;11.660;2023-06-14T03:40:46;10.02;;;4.90;;
65799;SDS011;52544;48.116;11.660;2023-06-14T03:43:12;8.13;;;4.30;;
65799;SDS011;52544;48.116;11.660;2023-06-14T03:45:37;6.55;;;4.20;;
65799;SDS011;52544;48.116;11.660;2023-06-14T03:48:02;7.35;;;4.95;;
65799;SDS011;52544;48.116;11.660;2023-06-14T03:50:28;8.18;;;4.40;;
65799;SDS011;52544;48.116;11.660;2023-06-14T03:52:53;6.57;;;4.80;;
65799;SDS011;52544;48.116;11.660;2023-06-14T03:55:19;7.03;;;4.28;;
65799;SDS011;52544;48.116;11.660;2023-06-14T03:57:44;7.90;;;4.70;;
65799;SDS011;52544;48.116;11.660;2023-06-14T04:00:10;11.95;;;4.75;;
65799;SDS011;52544;48.116;11.660;2023-06-14T04:02:37;11.43;;;4.78;;
65799;SDS011;52544;48.116;11.660;2023-06-14T04:05:03;8.23;;;4.07;;
65799;SDS011;52544;48.116;11.660;2023-06-14T04:07:29;9.30;;;4.63;;
65799;SDS011;52544;48.116;11.660;2023-06-14T04:09:55;8.75;;;4.90;;
65799;SDS011;52544;48.116;11.660;2023-06-14T04:12:20;8.70;;;4.72;;
65799;SDS011;52544;48.116;11.660;2023-06-14T04:14:46;9.00;;;4.38;;
65799;SDS011;52544;48.116;11.660;2023-06-14T04:17:11;7.68;;;4.53;;
65799;SDS011;52544;48.116;11.660;2023-06-14T04:19:36;9.82;;;4.85;;
65799;SDS011;52544;48.116;11.660;2023-06-14T04:22:02;6.43;;;4.28;;
65799;SDS011;52544;48.116;11.660;2023-06-14T04:24:28;6.68;;;4.10;;
65799;SDS011;52544;48.116;11.660;2023-06-14T04:26:58;7.70;;;4.25;;
65799;SDS011;52544;48.116;11.660;2023-06-14T04:29:24;8.13;;;4.57;;
65799;SDS011;52544;48.116;11.660;2023-06-14T04:31:53;8.38;;;4.53;;
65799;SDS011;52544;48.116;11.660;2023-06-14T04:34:19;6.28;;;3.95;;
65799;SDS011;52544;48.116;11.660;2023-06-14T04:36:47;5.80;;;3.78;;
65799;SDS011;52544;48.116;11.660;2023-06-14T04:39:21;7.15;;;3.97;;
65799;SDS011;52544;48.116;11.660;2023-06-14T04:41:47;7.35;;;4.22;;
65799;SDS011;52544;48.116;11.660;2023-06-14T04:44:13;8.23;;;4.60;;
65799;SDS011;52544;48.116;11.660;2023-06-14T04:46:38;7.75;;;4.03;;
65799;SDS011;52544;48.116;11.660;2023-06-14T04:49:13;5.97;;;3.88;;
65799;SDS011;52544;48.116;11.660;2023-06-14T04:51:43;7.32;;;4.65;;
65799;SDS011;52544;48.116;11.660;2023-06-14T04:54:09;7.32;;;4.05;;
65799;SDS011;52544;48.116;11.660;2023-06-14T04:56:42;8.18;;;3.95;;
65799;SDS011;52544;48.116;11.660;2023-06-14T04:59:07;7.70;;;4.78;;
65799;SDS011;52544;48.116;11.660;2023-06-14T05:01:34;7.47;;;4.30;;
65799;SDS011;52544;48.116;11.660;2023-06-14T05:03:59;5.65;;;4.10;;
65799;SDS011;52544;48.116;11.660;2023-06-14T05:06:25;6.00;;;4.10;;
65799;SDS011;52544;48.116;11.660;2023-06-14T05:08:53;8.27;;;4.18;;
65799;SDS011;52544;48.116;11.660;2023-06-14T05:11:19;6.60;;;3.72;;
65799;SDS011;52544;48.116;11.660;2023-06-14T05:13:45;5.50;;;3.65;;
65799;SDS011;52544;48.116;11.660;2023-06-14T05:16:11;6.38;;;3.55;;
65799;SDS011;52544;48.116;11.660;2023-06-14T05:18:37;5.47;;;3.85;;
65799;SDS011;52544;48.116;11.660;2023-06-14T05:21:03;5.93;;;3.90;;
65799;SDS011;52544;48.116;11.660;2023-06-14T05:23:30;10.57;;;5.30;;
65799;SDS011;52544;48.116;11.660;2023-06-14T05:25:56;8.95;;;5.50;;
65799;SDS011;52544;48.116;11.660;2023-06-14T05:28:22;7.25;;;4.60;;
65799;SDS011;52544;48.116;11.660;2023-06-14T05:30:47;9.30;;;3.72;;
65799;SDS011;52544;48.116;11.660;2023-06-14T05:33:13;5.93;;;3.63;;
65799;SDS011;52544;48.116;11.660;2023-06-14T05:35:38;11.95;;;4.00;;
65799;SDS011;52544;48.116;11.660;2023-06-14T05:38:04;6.45;;;4.18;;
65799;SDS011;52544;48.116;11.660;2023-06-14T05:40:29;6.65;;;4.10;;
65799;SDS011;52544;48.116;11.660;2023-06-14T05:42:55;10.93;;;3.90;;
65799;SDS011;52544;48.116;11.660;2023-06-14T05:45:20;8.20;;;3.70;;
65799;SDS011;52544;48.116;11.660;2023-06-14T05:47:45;5.72;;;3.83;;
65799;SDS011;52544;48.116;11.660;2023-06-14T05:50:11;8.43;;;4.28;;
65799;SDS011;52544;48.116;11.660;2023-06-14T05:52:36;7.10;;;4.07;;
65799;SDS011;52544;48.116;11.660;2023-06-14T05:55:02;6.88;;;4.30;;
65799;SDS011;52544;48.116;11.660;2023-06-14T05:57:29;14.00;;;6.03;;
65799;SDS011;52544;48.116;11.660;2023-06-14T05:59:54;8.82;;;4.70;;
65799;SDS011;52544;48.116;11.660;2023-06-14T06:02:20;8.13;;;4.07;;
65799;SDS011;52544;48.116;11.660;2023-06-14T06:04:45;5.40;;;3.72;;
65799;SDS011;52544;48.116;11.660;2023-06-14T06:07:11;8.68;;;3.85;;
65799;SDS011;52544;48.116;11.660;2023-06-14T06:09:36;10.63;;;4.13;;
65799;SDS011;52544;48.116;11.660;2023-06-14T06:12:02;6.15;;;4.22;;
65799;SDS011;52544;48.116;11.660;2023-06-14T06:14:28;6.78;;;4.05;;
65799;SDS011;52544;48.116;11.660;2023-06-14T06:16:53;7.43;;;4.13;;
65799;SDS011;52544;48.116;11.660;2023-06-14T06:19:19;6.55;;;4.00;;
65799;SDS011;52544;48.116;11.660;2023-06-14T06:21:44;6.47;;;3.95;;
65799;SDS011;52544;48.116;11.660;2023-06-14T06:24:10;14.55;;;3.97;;
65799;SDS011;52544;48.116;11.660;2023-06-14T06:26:35;12.98;;;4.35;;
65799;SDS011;52544;48.116;11.660;2023-06-14T06:29:01;6.75;;;4.03;;
65799;SDS011;52544;48.116;11.660;2023-06-14T06:31:27;10.07;;;4.25;;
65799;SDS011;52544;48.116;11.660;2023-06-14T06:33:52;10.75;;;4.60;;
65799;SDS011;52544;48.116;11.660;2023-06-14T06:36:19;7.45;;;4.35;;
65799;SDS011;52544;48.116;11.660;2023-06-14T06:38:47;8.13;;;3.92;;
65799;SDS011;52544;48.116;11.660;2023-06-14T06:41:12;11.95;;;4.25;;
65799;SDS011;52544;48.116;11.660;2023-06-14T06:43:38;11.90;;;4.68;;
65799;SDS011;52544;48.116;11.660;2023-06-14T06:46:04;24.42;;;3.90;;
65799;SDS011;52544;48.116;11.660;2023-06-14T06:48:29;6.05;;;3.72;;
65799;SDS011;52544;48.116;11.660;2023-06-14T06:50:55;10.70;;;4.35;;
65799;SDS011;52544;48.116;11.660;2023-06-14T06:53:20;6.40;;;3.97;;
65799;SDS011;52544;48.116;11.660;2023-06-14T06:55:46;13.50;;;4.28;;
65799;SDS011;52544;48.116;11.660;2023-06-14T06:58:12;6.35;;;4.03;;
65799;SDS011;52544;48.116;11.660;2023-06-14T07:00:37;11.32;;;4.38;;
65799;SDS011;52544;48.116;11.660;2023-06-14T07:03:03;14.40;;;4.25;;
65799;SDS011;52544;48.116;11.660;2023-06-14T07:05:29;7.47;;;4.13;;
65799;SDS011;52544;48.116;11.660;2023-06-14T07:07:54;7.07;;;3.72;;
65799;SDS011;52544;48.116;11.660;2023-06-14T07:10:20;14.45;;;3.85;;
65799;SDS011;52544;48.116;11.660;2023-06-14T07:12:45;8.32;;;3.80;;
65799;SDS011;52544;48.116;11.660;2023-06-14T07:15:11;5.35;;;3.60;;
65799;SDS011;52544;48.116;11.660;2023-06-14T07:17:37;5.88;;;3.70;;
65799;SDS011;52544;48.116;11.660;2023-06-14T07:20:03;10.63;;;3.70;;
65799;SDS011;52544;48.116;11.660;2023-06-14T07:22:41;6.85;;;3.88;;
65799;SDS011;52544;48.116;11.660;2023-06-14T07:25:11;6.03;;;3.92;;
65799;SDS011;52544;48.116;11.660;2023-06-14T07:27:40;5.68;;;3.40;;
65799;SDS011;52544;48.116;11.660;2023-06-14T07:30:06;6.05;;;3.70;;
65799;SDS011;52544;48.116;11.660;2023-06-14T07:32:32;5.38;;;3.42;;
65799;SDS011;52544;48.116;11.660;2023-06-14T07:34:58;6.50;;;3.45;;
65799;SDS011;52544;48.116;11.660;2023-06-14T07:37:23;7.38;;;3.60;;
65799;SDS011;52544;48.116;11.660;2023-06-14T07:39:49;6.82;;;3.45;;
65799;SDS011;52544;48.116;11.660;2023-06-14T07:42:14;7.35;;;3.72;;
65799;SDS011;52544;48.116;11.660;2023-06-14T07:44:39;8.63;;;3.67;;
65799;SDS011;52544;48.116;11.660;2023-06-14T07:47:05;7.15;;;3.50;;
65799;SDS011;52544;48.116;11.660;2023-06-14T07:49:30;9.38;;;3.25;;
65799;SDS011;52544;48.116;11.660;2023-06-14T07:51:56;6.95;;;3.45;;
65799;SDS011;52544;48.116;11.660;2023-06-14T07:54:21;6.00;;;3.03;;
65799;SDS011;52544;48.116;11.660;2023-06-14T07:56:50;4.47;;;3.13;;
65799;SDS011;52544;48.116;11.660;2023-06-14T07:59:16;10.45;;;3.83;;
65799;SDS011;52544;48.116;11.660;2023-06-14T08:01:41;9.75;;;3.58;;
65799;SDS011;52544;48.116;11.660;2023-06-14T08:04:12;4.72;;;3.10;;
65799;SDS011;52544;48.116;11.660;2023-06-14T08:06:38;7.05;;;3.40;;
65799;SDS011;52544;48.116;11.660;2023-06-14T08:09:04;4.75;;;3.03;;
65799;SDS011;52544;48.116;11.660;2023-06-14T08:11:30;6.55;;;3.15;;
65799;SDS011;52544;48.116;11.660;2023-06-14T08:13:56;6.00;;;3.10;;
65799;SDS011;52544;48.116;11.660;2023-06-14T08:16:21;4.57;;;3.22;;
65799;SDS011;52544;48.116;11.660;2023-06-14T08:18:46;4.97;;;3.13;;
65799;SDS011;52544;48.116;11.660;2023-06-14T08:21:12;5.45;;;3.40;;
65799;SDS011;52544;48.116;11.660;2023-06-14T08:23:40;5.15;;;3.38;;
65799;SDS011;52544;48.116;11.660;2023-06-14T08:26:06;11.25;;;3.17;;
65799;SDS011;52544;48.116;11.660;2023-06-14T08:28:32;4.50;;;3.15;;
65799;SDS011;52544;48.116;11.660;2023-06-14T08:30:57;7.05;;;3.17;;
65799;SDS011;52544;48.116;11.660;2023-06-14T08:33:22;4.95;;;2.80;;
65799;SDS011;52544;48.116;11.660;2023-06-14T08:35:48;4.07;;;2.88;;
65799;SDS011;52544;48.116;11.660;2023-06-14T08:38:14;4.60;;;2.92;;
65799;SDS011;52544;48.116;11.660;2023-06-14T08:40:39;5.53;;;2.97;;
65799;SDS011;52544;48.116;11.660;2023-06-14T08:43:06;11.63;;;3.45;;
65799;SDS011;52544;48.116;11.660;2023-06-14T08:45:32;5.60;;;2.83;;
65799;SDS011;52544;48.116;11.660;2023-06-14T08:47:57;9.65;;;3.35;;
65799;SDS011;52544;48.116;11.660;2023-06-14T08:50:24;5.40;;;2.58;;
65799;SDS011;52544;48.116;11.660;2023-06-14T08:52:59;5.35;;;3.20;;
65799;SDS011;52544;48.116;11.660;2023-06-14T08:55:27;6.85;;;3.20;;
65799;SDS011;52544;48.116;11.660;2023-06-14T08:57:55;4.88;;;3.03;;
65799;SDS011;52544;48.116;11.660;2023-06-14T09:00:25;4.38;;;3.00;;
65799;SDS011;52544;48.116;11.660;2023-06-14T09:02:52;5.75;;;3.10;;
65799;SDS011;52544;48.116;11.660;2023-06-14T09:05:23;5.93;;;3.28;;
65799;SDS011;52544;48.116;11.660;2023-06-14T09:07:52;5.25;;;3.40;;
65799;SDS011;52544;48.116;11.660;2023-06-14T09:10:20;4.40;;;2.85;;
65799;SDS011;52544;48.116;11.660;2023-06-14T09:12:46;4.97;;;3.25;;
65799;SDS011;52544;48.116;11.660;2023-06-14T09:15:12;7.40;;;3.15;;
65799;SDS011;52544;48.116;11.660;2023-06-14T09:17:39;7.47;;;3.40;;
65799;SDS011;52544;48.116;11.660;2023-06-14T09:20:05;6.63;;;3.20;;
65799;SDS011;52544;48.116;11.660;2023-06-14T09:22:36;5.97;;;3.17;;
65799;SDS011;52544;48.116;11.660;2023-06-14T09:25:03;6.25;;;3.30;;
65799;SDS011;52544;48.116;11.660;2023-06-14T09:27:28;4.00;;;3.05;;
65799;SDS011;52544;48.116;11.660;2023-06-14T09:29:54;5.38;;;3.40;;
65799;SDS011;52544;48.116;11.660;2023-06-14T09:32:21;7.22;;;3.30;;
65799;SDS011;52544;48.116;11.660;2023-06-14T09:34:46;7.07;;;3.25;;
65799;SDS011;52544;48.116;11.660;2023-06-14T09:37:12;5.65;;;3.08;;
65799;SDS011;52544;48.116;11.660;2023-06-14T09:39:50;5.82;;;3.38;;
65799;SDS011;52544;48.116;11.660;2023-06-14T09:42:16;6.10;;;3.30;;
65799;SDS011;52544;48.116;11.660;2023-06-14T09:44:45;6.50;;;3.50;;
65799;SDS011;52544;48.116;11.660;2023-06-14T09:47:13;4.57;;;3.28;;
65799;SDS011;52544;48.116;11.660;2023-06-14T09:49:42;7.40;;;3.20;;
65799;SDS011;52544;48.116;11.660;2023-06-14T09:52:17;6.00;;;3.40;;
65799;SDS011;52544;48.116;11.660;2023-06-14T09:54:44;8.43;;;3.70;;
65799;SDS011;52544;48.116;11.660;2023-06-14T09:57:23;8.13;;;3.47;;
65799;SDS011;52544;48.116;11.660;2023-06-14T09:59:52;8.63;;;3.50;;
65799;SDS011;52544;48.116;11.660;2023-06-14T10:04:53;7.32;;;3.28;;
65799;SDS011;52544;48.116;11.660;2023-06-14T10:07:30;6.95;;;3.53;;
65799;SDS011;52544;48.116;11.660;2023-06-14T10:10:00;8.48;;;3.90;;
65799;SDS011;52544;48.116;11.660;2023-06-14T10:12:26;8.13;;;3.80;;
65799;SDS011;52544;48.116;11.660;2023-06-14T10:14:52;4.90;;;3.67;;
65799;SDS011;52544;48.116;11.660;2023-06-14T10:17:23;7.60;;;3.70;;
65799;SDS011;52544;48.116;11.660;2023-06-14T10:20:06;6.75;;;3.78;;
65799;SDS011;52544;48.116;11.660;2023-06-14T10:22:51;8.13;;;3.85;;
65799;SDS011;52544;48.116;11.660;2023-06-14T10:25:41;7.45;;;3.70;;
65799;SDS011;52544;48.116;11.660;2023-06-14T10:30:38;15.15;;;3.80;;
65799;SDS011;52544;48.116;11.660;2023-06-14T10:33:07;5.75;;;3.60;;
65799;SDS011;52544;48.116;11.660;2023-06-14T10:35:33;6.75;;;3.67;;
65799;SDS011;52544;48.116;11.660;2023-06-14T10:38:08;6.20;;;3.63;;
65799;SDS011;52544;48.116;11.660;2023-06-14T10:40:35;10.18;;;3.90;;
65799;SDS011;52544;48.116;11.660;2023-06-14T10:43:01;8.82;;;4.15;;
65799;SDS011;52544;48.116;11.660;2023-06-14T10:48:44;5.65;;;3.38;;
65799;SDS011;52544;48.116;11.660;2023-06-14T10:51:19;5.70;;;3.67;;
65799;SDS011;52544;48.116;11.660;2023-06-14T10:53:46;6.45;;;3.58;;
65799;SDS011;52544;48.116;11.660;2023-06-14T10:59:16;8.60;;;3.85;;
65799;SDS011;52544;48.116;11.660;2023-06-14T11:04:23;9.30;;;3.95;;
65799;SDS011;52544;48.116;11.660;2023-06-14T11:10:05;7.85;;;3.80;;
65799;SDS011;52544;48.116;11.660;2023-06-14T11:12:45;4.75;;;3.63;;
65799;SDS011;52544;48.116;11.660;2023-06-14T11:15:13;7.25;;;4.07;;
65799;SDS011;52544;48.116;11.660;2023-06-14T11:17:38;7.57;;;4.13;;
65799;SDS011;52544;48.116;11.660;2023-06-14T11:20:07;6.45;;;3.70;;
65799;SDS011;52544;48.116;11.660;2023-06-14T11:22:41;5.20;;;3.70;;
65799;SDS011;52544;48.116;11.660;2023-06-14T11:25:10;6.75;;;3.50;;
65799;SDS011;52544;48.116;11.660;2023-06-14T11:27:37;11.82;;;3.88;;
65799;SDS011;52544;48.116;11.660;2023-06-14T11:30:02;7.32;;;3.60;;
65799;SDS011;52544;48.116;11.660;2023-06-14T11:32:28;6.68;;;3.75;;
65799;SDS011;52544;48.116;11.660;2023-06-14T11:34:56;6.65;;;3.58;;
65799;SDS011;52544;48.116;11.660;2023-06-14T11:37:23;6.13;;;3.83;;
65799;SDS011;52544;48.116;11.660;2023-06-14T11:39:51;6.70;;;4.00;;
65799;SDS011;52544;48.116;11.660;2023-06-14T11:42:16;7.60;;;4.05;;
65799;SDS011;52544;48.116;11.660;2023-06-14T11:44:45;5.05;;;4.03;;
65799;SDS011;52544;48.116;11.660;2023-06-14T11:47:12;9.70;;;4.13;;
65799;SDS011;52544;48.116;11.660;2023-06-14T11:49:37;4.93;;;3.42;;
65799;SDS011;52544;48.116;11.660;2023-06-14T11:52:03;5.70;;;3.88;;
65799;SDS011;52544;48.116;11.660;2023-06-14T11:54:29;5.80;;;3.63;;
65799;SDS011;52544;48.116;11.660;2023-06-14T11:56:54;4.53;;;3.72;;
65799;SDS011;52544;48.116;11.660;2023-06-14T11:59:20;6.55;;;3.80;;
65799;SDS011;52544;48.116;11.660;2023-06-14T12:01:47;10.10;;;4.25;;
65799;SDS011;52544;48.116;11.660;2023-06-14T12:04:13;7.10;;;3.47;;
65799;SDS011;52544;48.116;11.660;2023-06-14T12:06:38;5.68;;;3.90;;
65799;SDS011;52544;48.116;11.660;2023-06-14T12:09:05;5.35;;;3.50;;
65799;SDS011;52544;48.116;11.660;2023-06-14T12:11:43;11.02;;;3.50;;
65799;SDS011;52544;48.116;11.660;2023-06-14T12:14:08;4.32;;;3.58;;
65799;SDS011;52544;48.116;11.660;2023-06-14T12:16:34;6.47;;;3.90;;
65799;SDS011;52544;48.116;11.660;2023-06-14T12:19:12;5.85;;;3.72;;
65799;SDS011;52544;48.116;11.660;2023-06-14T12:21:42;4.65;;;3.63;;
65799;SDS011;52544;48.116;11.660;2023-06-14T12:24:09;8.90;;;4.00;;
65799;SDS011;52544;48.116;11.660;2023-06-14T12:26:40;7.32;;;3.60;;
65799;SDS011;52544;48.116;11.660;2023-06-14T12:29:06;13.60;;;4.13;;
65799;SDS011;52544;48.116;11.660;2023-06-14T12:31:33;4.85;;;3.60;;
65799;SDS011;52544;48.116;11.660;2023-06-14T12:33:58;8.25;;;3.45;;
65799;SDS011;52544;48.116;11.660;2023-06-14T12:36:24;6.10;;;3.70;;
65799;SDS011;52544;48.116;11.660;2023-06-14T12:38:50;6.43;;;4.40;;
65799;SDS011;52544;48.116;11.660;2023-06-14T12:41:19;5.95;;;3.72;;
65799;SDS011;52544;48.116;11.660;2023-06-14T12:43:46;10.50;;;3.67;;
65799;SDS011;52544;48.116;11.660;2023-06-14T12:46:11;6.63;;;3.65;;
65799;SDS011;52544;48.116;11.660;2023-06-14T12:48:37;9.07;;;3.90;;
65799;SDS011;52544;48.116;11.660;2023-06-14T12:51:02;7.80;;;3.67;;
65799;SDS011;52544;48.116;11.660;2023-06-14T12:53:28;8.23;;;3.50;;
65799;SDS011;52544;48.116;11.660;2023-06-14T12:55:53;6.18;;;3.65;;
65799;SDS011;52544;48.116;11.660;2023-06-14T12:58:19;10.50;;;3.60;;
65799;SDS011;52544;48.116;11.660;2023-06-14T13:00:45;5.70;;;3.92;;
65799;SDS011;52544;48.116;11.660;2023-06-14T13:03:11;6.47;;;4.13;;
65799;SDS011;52544;48.116;11.660;2023-06-14T13:05:36;4.22;;;3.28;;
65799;SDS011;52544;48.116;11.660;2023-06-14T13:08:02;13.40;;;3.65;;
65799;SDS011;52544;48.116;11.660;2023-06-14T13:10:28;7.65;;;4.22;;
65799;SDS011;52544;48.116;11.660;2023-06-14T13:12:53;6.13;;;3.60;;
65799;SDS011;52544;48.116;11.660;2023-06-14T13:15:19;5.90;;;4.18;;
65799;SDS011;52544;48.116;11.660;2023-06-14T13:17:45;6.03;;;3.72;;
65799;SDS011;52544;48.116;11.660;2023-06-14T13:20:13;5.30;;;3.47;;
65799;SDS011;52544;48.116;11.660;2023-06-14T13:22:39;5.32;;;3.75;;
65799;SDS011;52544;48.116;11.660;2023-06-14T13:25:05;4.88;;;3.58;;
65799;SDS011;52544;48.116;11.660;2023-06-14T13:27:31;4.43;;;3.70;;
65799;SDS011;52544;48.116;11.660;2023-06-14T13:29:56;4.95;;;3.47;;
65799;SDS011;52544;48.116;11.660;2023-06-14T13:32:22;10.20;;;3.80;;
65799;SDS011;52544;48.116;11.660;2023-06-14T13:34:48;8.55;;;3.90;;
65799;SDS011;52544;48.116;11.660;2023-06-14T13:37:14;6.10;;;3.80;;
65799;SDS011;52544;48.116;11.660;2023-06-14T13:39:39;4.10;;;3.45;;
65799;SDS011;52544;48.116;11.660;2023-06-14T13:42:05;6.28;;;3.45;;
65799;SDS011;52544;48.116;11.660;2023-06-14T13:44:30;6.20;;;3.60;;
65799;SDS011;52544;48.116;11.660;2023-06-14T13:46:56;4.40;;;3.67;;
65799;SDS011;52544;48.116;11.660;2023-06-14T13:49:21;5.72;;;3.65;;
65799;SDS011;52544;48.116;11.660;2023-06-14T13:51:47;10.80;;;4.25;;
65799;SDS011;52544;48.116;11.660;2023-06-14T13:54:12;7.90;;;3.88;;
65799;SDS011;52544;48.116;11.660;2023-06-14T13:56:41;6.03;;;3.78;;
65799;SDS011;52544;48.116;11.660;2023-06-14T13:59:07;6.55;;;3.78;;
65799;SDS011;52544;48.116;11.660;2023-06-14T14:01:33;8.65;;;3.53;;
65799;SDS011;52544;48.116;11.660;2023-06-14T14:03:58;6.22;;;4.10;;
65799;SDS011;52544;48.116;11.660;2023-06-14T14:06:25;7.22;;;4.00;;
65799;SDS011;52544;48.116;11.660;2023-06-14T14:08:51;5.90;;;3.95;;
65799;SDS011;52544;48.116;11.660;2023-06-14T14:11:18;6.85;;;3.60;;
65799;SDS011;52544;48.116;11.660;2023-06-14T14:13:43;8.98;;;4.07;;
65799;SDS011;52544;48.116;11.660;2023-06-14T14:16:09;5.15;;;3.80;;
65799;SDS011;52544;48.116;11.660;2023-06-14T14:18:35;8.45;;;4.00;;
65799;SDS011;52544;48.116;11.660;2023-06-14T14:21:02;4.28;;;3.28;;
65799;SDS011;52544;48.116;11.660;2023-06-14T14:23:28;4.75;;;3.58;;
65799;SDS011;52544;48.116;11.660;2023-06-14T14:25:53;8.07;;;3.45;;
65799;SDS011;52544;48.116;11.660;2023-06-14T14:28:19;5.18;;;3.70;;
65799;SDS011;52544;48.116;11.660;2023-06-14T14:30:45;7.60;;;3.45;;
65799;SDS011;52544;48.116;11.660;2023-06-14T14:33:12;6.70;;;3.60;;
65799;SDS011;52544;48.116;11.660;2023-06-14T14:35:44;9.18;;;4.07;;
65799;SDS011;52544;48.116;11.660;2023-06-14T14:38:12;5.50;;;4.00;;
65799;SDS011;52544;48.116;11.660;2023-06-14T14:40:39;6.15;;;4.05;;
65799;SDS011;52544;48.116;11.660;2023-06-14T14:43:05;5.10;;;3.63;;
65799;SDS011;52544;48.116;11.660;2023-06-14T14:45:31;4.93;;;3.60;;
65799;SDS011;52544;48.116;11.660;2023-06-14T14:47:56;4.80;;;3.63;;
65799;SDS011;52544;48.116;11.660;2023-06-14T14:50:22;5.20;;;3.90;;